Oaks, Texas
Current Conditions -  °F | °C
As of 11:53 AM on Sunday 25 Jan 2015 (Local Time) from KFTW Reporting Station
Clear Clear  
Wind Chill: 63°   Ceiling: Unl
Heat Index: 63°   Visibility: 10mi
Dew Point: 29°   Wind: 24mph
Humidity: 28%   Direction: 310°NW
Pressure: 30.05"   Gusts: 32mph
Location:  32.7763°N, 97.4092°W
Report Text: KFTW 251753Z 31021G28KT 10SM CLR 17/M02 A3005 RMK AO2 PK WND 32030/1701 SLP173 T01721017 10172 20072 50005
Loading
Personal Weather Stations






























Interactive Weather Map New forecast layout! Learn more

10-Day Weather Forecast

Advertisements
Track Severe Weather on mobile